Time;durP1;ratioP1;P1;durP2;ratioP2;P2;SDS_P1;SDS_P2;PMS_P1;PMS_P2;Temp;Humidity;BMP_temperature;BMP_pressure;BME280_temperature;BME280_humidity;BME280_pressure;Samples;Min_cycle;Max_cycle;Signal;HPM_P1;HPM_P2
2022/10/04 00:00:42;;;;;;;10.13;6.45;;;;;;;2.15;100.00;93677.50;2118979;27;20030;-73
2022/10/04 00:01:51;;;;;;;10.00;6.50;;;;;;;2.17;100.00;93675.28;2130420;27;20102;-74
2022/10/04 00:03:18;;;;;;;9.80;6.60;;;;;;;2.17;100.00;93671.88;2130456;27;20041;-74
2022/10/04 00:04:28;;;;;;;13.23;6.07;;;;;;;2.16;100.00;93668.47;2103460;28;20043;-74
2022/10/04 00:05:30;;;;;;;9.13;6.13;;;;;;;2.17;100.00;93671.88;2127367;27;20034;-73
2022/10/04 00:06:31;;;;;;;9.00;6.03;;;;;;;2.13;100.00;93673.69;2129937;27;20341;-74
2022/10/04 00:07:50;;;;;;;7.45;6.13;;;;;;;2.14;100.00;93670.69;2130607;27;20027;-73
2022/10/04 00:08:57;;;;;;;7.35;5.65;;;;;;;2.05;100.00;93675.41;2131053;27;20392;-74
2022/10/04 00:10:21;;;;;;;10.02;6.03;;;;;;;2.03;100.00;93671.63;2130976;27;20080;-75
2022/10/04 00:11:34;;;;;;;8.57;5.32;;;;;;;2.11;100.00;93670.63;2119843;27;20663;-74
2022/10/04 00:12:38;;;;;;;9.55;5.80;;;;;;;2.10;100.00;93674.38;2121147;27;20034;-73
2022/10/04 00:13:45;;;;;;;7.43;5.93;;;;;;;2.10;100.00;93671.72;2131556;27;20027;-73
2022/10/04 00:14:47;;;;;;;15.23;6.28;;;;;;;2.06;100.00;93668.25;2130974;27;20026;-73
2022/10/04 00:15:49;;;;;;;8.45;5.70;;;;;;;2.06;100.00;93658.47;2130387;27;20046;-72
2022/10/04 00:16:51;;;;;;;13.73;6.85;;;;;;;2.00;100.00;93665.91;2131706;27;20026;-75
2022/10/04 00:18:10;;;;;;;6.88;6.07;;;;;;;2.01;100.00;93664.78;2131837;27;20034;-72
2022/10/04 00:19:14;;;;;;;10.52;6.50;;;;;;;1.96;100.00;93659.81;2130011;27;20651;-73
2022/10/04 00:20:49;;;;;;;11.82;5.80;;;;;;;1.96;100.00;93661.69;2116692;27;20038;-72
2022/10/04 00:21:54;;;;;;;9.35;5.63;;;;;;;1.99;100.00;93659.13;2124920;27;20035;-72
2022/10/04 00:23:40;;;;;;;10.43;6.03;;;;;;;1.97;100.00;93660.56;2131110;27;20026;-74
2022/10/04 00:25:06;;;;;;;7.97;5.13;;;;;;;2.03;100.00;93658.44;2126454;27;20030;-72
2022/10/04 00:26:33;;;;;;;7.80;5.28;;;;;;;1.94;100.00;93661.28;2130148;27;20022;-76
2022/10/04 00:27:36;;;;;;;8.65;6.00;;;;;;;1.94;100.00;93656.00;2129456;27;20031;-74
2022/10/04 00:28:38;;;;;;;9.25;6.07;;;;;;;1.90;100.00;93657.81;2120894;27;20038;-74
2022/10/04 00:29:43;;;;;;;12.57;6.20;;;;;;;1.89;100.00;93658.91;2112460;27;20488;-74
2022/10/04 00:31:04;;;;;;;11.52;6.30;;;;;;;1.92;100.00;93655.56;2118305;27;20030;-76
2022/10/04 00:32:11;;;;;;;9.35;5.25;;;;;;;2.00;100.00;93655.34;2120655;27;20053;-75
2022/10/04 00:33:35;;;;;;;7.97;5.80;;;;;;;1.91;100.00;93660.09;2130135;27;20023;-74
2022/10/04 00:34:50;;;;;;;8.45;5.80;;;;;;;1.85;100.00;93645.66;2131326;27;20082;-74
2022/10/04 00:35:51;;;;;;;11.57;5.57;;;;;;;1.85;100.00;93650.94;2131475;27;20464;-74
2022/10/04 00:36:56;;;;;;;8.38;5.85;;;;;;;1.87;100.00;93643.44;2118006;27;20023;-76
2022/10/04 00:38:07;;;;;;;11.10;5.90;;;;;;;1.86;100.00;93641.91;2120190;27;20028;-74
2022/10/04 00:39:07;;;;;;;8.25;5.55;;;;;;;1.87;100.00;93646.06;2130513;27;20064;-74
2022/10/04 00:40:15;;;;;;;14.43;5.95;;;;;;;1.84;100.00;93643.34;2130945;27;20030;-73
2022/10/04 00:41:17;;;;;;;8.85;5.55;;;;;;;1.85;100.00;93648.31;2131322;27;20083;-74
2022/10/04 00:42:43;;;;;;;9.77;5.70;;;;;;;1.74;100.00;93640.16;2129662;27;20519;-74
2022/10/04 00:43:47;;;;;;;7.00;5.20;;;;;;;1.78;100.00;93645.50;2129901;27;20030;-75
2022/10/04 00:45:12;;;;;;;5.80;5.22;;;;;;;1.68;100.00;93646.84;2131183;27;20065;-74
2022/10/04 00:46:21;;;;;;;9.68;5.68;;;;;;;1.79;100.00;93647.03;2129961;27;20026;-74
2022/10/04 00:47:34;;;;;;;10.45;5.50;;;;;;;1.81;100.00;93638.81;2129998;27;20018;-74
2022/10/04 00:48:41;;;;;;;8.90;5.38;;;;;;;1.92;100.00;93647.66;2130750;27;20042;-75
2022/10/04 00:49:46;;;;;;;6.90;5.45;;;;;;;1.87;100.00;93651.34;2131058;27;20417;-76
2022/10/04 00:50:57;;;;;;;7.03;5.13;;;;;;;1.79;100.00;93649.66;2130232;27;20030;-75
2022/10/04 00:52:04;;;;;;;9.88;5.28;;;;;;;1.79;100.00;93648.91;2130441;27;20069;-74
2022/10/04 00:53:30;;;;;;;8.10;5.80;;;;;;;1.84;100.00;93644.13;2128878;27;20100;-75
2022/10/04 00:54:40;;;;;;;9.23;5.32;;;;;;;1.68;100.00;93640.81;2129424;27;20022;-73
2022/10/04 00:55:50;;;;;;;8.02;5.47;;;;;;;1.71;100.00;93648.78;2132346;27;20531;-74
2022/10/04 00:56:54;;;;;;;12.55;6.07;;;;;;;1.67;100.00;93636.66;2131258;27;20464;-75
2022/10/04 00:58:01;;;;;;;8.20;6.40;;;;;;;1.66;100.00;93646.41;2128080;27;20027;-73
2022/10/04 00:59:28;;;;;;;10.32;5.55;;;;;;;1.70;100.00;93643.84;2118502;27;20126;-76
2022/10/04 01:00:32;;;;;;;10.55;5.50;;;;;;;1.68;100.00;93643.44;2122446;27;20027;-74
2022/10/04 01:01:36;;;;;;;7.65;5.30;;;;;;;1.66;100.00;93637.75;2129253;27;20136;-76
2022/10/04 01:02:49;;;;;;;10.60;6.00;;;;;;;1.61;100.00;93638.78;2129121;27;20039;-74
2022/10/04 01:03:55;;;;;;;5.68;4.85;;;;;;;1.68;100.00;93641.56;2130737;27;20031;-74
2022/10/04 01:05:16;;;;;;;7.15;5.28;;;;;;;1.75;100.00;93635.66;2130347;27;20384;-73
2022/10/04 01:06:20;;;;;;;9.60;5.32;;;;;;;1.69;100.00;93643.09;2129837;27;20410;-74
2022/10/04 01:07:38;;;;;;;6.32;5.15;;;;;;;1.64;100.00;93627.56;2130489;27;20365;-76
2022/10/04 01:08:47;;;;;;;7.78;5.15;;;;;;;1.62;100.00;93629.75;2130767;27;20025;-76
2022/10/04 01:10:03;;;;;;;6.55;5.18;;;;;;;1.62;100.00;93634.25;2130136;27;20045;-73
2022/10/04 01:11:10;;;;;;;8.25;5.25;;;;;;;1.64;100.00;93634.69;2129905;27;20038;-74
2022/10/04 01:12:41;;;;;;;8.77;5.35;;;;;;;1.64;100.00;93632.81;2117537;27;20484;-73
2022/10/04 01:13:53;;;;;;;8.48;4.80;;;;;;;1.61;100.00;93635.38;2117380;27;20118;-73
2022/10/04 01:15:05;;;;;;;6.60;5.20;;;;;;;1.63;100.00;93628.66;2129955;27;20026;-75
2022/10/04 01:16:08;;;;;;;8.38;5.18;;;;;;;1.62;100.00;93629.75;2129687;27;20113;-72
2022/10/04 01:17:09;;;;;;;6.22;4.75;;;;;;;1.55;100.00;93624.38;2131080;27;20042;-73
2022/10/04 01:18:19;;;;;;;9.45;5.47;;;;;;;1.54;100.00;93622.06;2129824;27;21105;-73
2022/10/04 01:19:20;;;;;;;;;;;;;;;1.57;100.00;93627.41;2129852;27;20025;-72
2022/10/04 01:20:32;;;;;;;13.35;5.07;;;;;;;1.62;100.00;93621.09;2131363;27;19911;-75
2022/10/04 01:21:36;;;;;;;6.60;4.95;;;;;;;1.60;100.00;93621.44;2119453;27;20555;-73
2022/10/04 01:22:49;;;;;;;7.78;5.07;;;;;;;1.58;100.00;93617.63;2118840;27;20087;-74
2022/10/04 01:23:57;;;;;;;8.82;5.20;;;;;;;1.50;100.00;93620.13;2129027;27;20039;-72
2022/10/04 01:24:58;;;;;;;5.70;4.90;;;;;;;1.50;100.00;93617.50;2130306;27;20796;-74
2022/10/04 01:25:59;;;;;;;5.13;4.47;;;;;;;1.55;100.00;93613.06;2132456;27;20036;-72
2022/10/04 01:27:00;;;;;;;7.93;5.03;;;;;;;1.59;100.00;93619.16;2120539;27;20027;-73
2022/10/04 01:28:01;;;;;;;7.68;5.15;;;;;;;1.57;100.00;93621.38;2117869;27;20114;-72
2022/10/04 01:29:25;;;;;;;6.53;5.00;;;;;;;1.55;100.00;93623.59;2116456;27;20184;-73
2022/10/04 01:30:26;;;;;;;6.32;5.20;;;;;;;1.56;100.00;93617.22;2120579;27;20509;-73
2022/10/04 01:31:28;;;;;;;8.05;4.90;;;;;;;1.57;100.00;93618.75;2128785;27;20033;-74
2022/10/04 01:32:30;;;;;;;5.82;4.90;;;;;;;1.48;100.00;93616.31;2129548;27;20094;-75
2022/10/04 01:33:31;;;;;;;7.97;5.25;;;;;;;1.37;100.00;93610.81;2128719;27;20503;-73
2022/10/04 01:34:32;;;;;;;8.52;5.05;;;;;;;1.39;100.00;93613.09;2128856;27;20042;-73
2022/10/04 01:35:36;;;;;;;8.20;5.30;;;;;;;1.47;100.00;93602.38;2129274;27;20027;-72
2022/10/04 01:36:38;;;;;;;11.00;5.88;;;;;;;1.42;100.00;93607.16;2130823;27;20110;-72
2022/10/04 01:37:39;;;;;;;6.30;4.95;;;;;;;1.38;100.00;93608.97;2131029;27;20103;-72
2022/10/04 01:38:40;;;;;;;8.35;5.72;;;;;;;1.43;100.00;93609.44;2131006;27;20022;-73
2022/10/04 01:39:42;;;;;;;10.30;5.40;;;;;;;1.42;100.00;93600.03;2130203;27;20053;-72
2022/10/04 01:40:52;;;;;;;9.52;5.18;;;;;;;1.46;100.00;93598.22;2130639;27;20113;-72
2022/10/04 01:41:59;;;;;;;14.63;4.80;;;;;;;1.48;100.00;93598.63;2130467;27;20041;-74
2022/10/04 01:43:07;;;;;;;14.63;5.05;;;;;;;1.46;100.00;93602.72;2127633;27;20098;-75
2022/10/04 01:44:16;;;;;;;7.13;5.20;;;;;;;1.46;100.00;93595.59;2129666;27;20030;-72
2022/10/04 01:45:39;;;;;;;7.25;4.78;;;;;;;1.46;100.00;93587.69;2129548;27;20105;-71
2022/10/04 01:46:40;;;;;;;7.45;4.78;;;;;;;1.51;100.00;93591.91;2130578;27;20015;-72
2022/10/04 01:48:01;;;;;;;6.60;5.35;;;;;;;1.47;100.00;93585.81;2109175;27;20490;-72
2022/10/04 01:49:07;;;;;;;7.93;5.10;;;;;;;1.50;100.00;93588.53;2115789;27;20031;-72
2022/10/04 01:50:31;;;;;;;6.72;4.72;;;;;;;1.51;100.00;93581.38;2129719;27;20035;-74
2022/10/04 01:51:36;;;;;;;6.43;4.55;;;;;;;1.55;100.00;93586.72;2132413;27;20034;-72
2022/10/04 01:52:49;;;;;;;7.57;4.68;;;;;;;1.53;100.00;93584.41;2131607;27;20023;-72
2022/10/04 01:53:59;;;;;;;7.20;4.38;;;;;;;1.46;100.00;93587.69;2130709;27;20034;-72
2022/10/04 01:55:10;;;;;;;4.78;4.30;;;;;;;1.58;100.00;93591.28;2117218;27;20053;-73
2022/10/04 01:56:19;;;;;;;6.10;4.53;;;;;;;1.62;100.00;93589.47;2122042;27;20027;-75
2022/10/04 01:57:30;;;;;;;7.78;4.55;;;;;;;1.60;100.00;93587.19;2130204;27;20048;-72
2022/10/04 01:58:41;;;;;;;6.13;4.53;;;;;;;1.62;100.00;93592.88;2128612;27;20035;-75
2022/10/04 01:59:53;;;;;;;6.05;4.45;;;;;;;1.56;100.00;93590.88;2129124;27;20952;-73
2022/10/04 02:01:01;;;;;;;7.65;4.30;;;;;;;1.56;100.00;93585.59;2129339;27;20452;-73
2022/10/04 02:02:15;;;;;;;6.43;4.38;;;;;;;1.52;100.00;93585.53;2117412;27;20054;-73
2022/10/04 02:03:26;;;;;;;5.30;3.95;;;;;;;1.54;100.00;93591.22;2118868;27;20030;-73
2022/10/04 02:04:31;;;;;;;7.35;4.13;;;;;;;1.55;100.00;93586.72;2130439;27;20022;-73
2022/10/04 02:05:43;;;;;;;5.40;4.65;;;;;;;1.54;100.00;93585.97;2128848;27;20075;-74
2022/10/04 02:06:47;;;;;;;7.32;4.30;;;;;;;1.50;100.00;93585.13;2130089;27;20031;-73
2022/10/04 02:07:49;;;;;;;4.78;4.32;;;;;;;1.50;100.00;93585.88;2130179;27;20443;-73
2022/10/04 02:08:56;;;;;;;5.70;4.30;;;;;;;1.49;100.00;93581.72;2130336;27;20066;-73
2022/10/04 02:10:01;;;;;;;8.68;4.53;;;;;;;1.51;100.00;93573.47;2128514;27;20023;-73
2022/10/04 02:11:04;;;;;;;7.43;4.07;;;;;;;1.50;100.00;93579.84;2127808;27;20035;-74
2022/10/04 02:12:05;;;;;;;5.15;4.22;;;;;;;1.55;100.00;93570.91;2130301;27;20022;-73
2022/10/04 02:13:14;;;;;;;13.80;4.93;;;;;;;1.47;100.00;93570.75;2131144;27;20031;-74
2022/10/04 02:15:51;;;;;;;5.40;3.72;;;;;;;1.44;100.00;93578.59;2117655;27;20163;-73
2022/10/04 02:16:53;;;;;;;5.35;4.32;;;;;;;1.47;100.00;93575.28;2116245;28;20031;-73
2022/10/04 02:17:56;;;;;;;6.25;3.85;;;;;;;1.40;100.00;93570.63;2117286;28;20024;-75
2022/10/04 02:18:58;;;;;;;5.60;4.03;;;;;;;1.40;100.00;93575.88;2113121;28;20031;-75
2022/10/04 02:20:01;;;;;;;7.55;4.22;;;;;;;1.32;100.00;93571.59;2116317;28;20030;-73
2022/10/04 02:21:05;;;;;;;5.97;4.63;;;;;;;1.33;100.00;93580.25;2114280;28;20445;-74
2022/10/04 02:22:09;;;;;;;5.75;4.47;;;;;;;1.35;100.00;93576.16;2117862;28;20044;-71
2022/10/04 02:23:11;;;;;;;9.32;4.25;;;;;;;1.26;100.00;93575.59;2115781;28;20130;-73
2022/10/04 02:24:13;;;;;;;6.85;3.60;;;;;;;1.31;100.00;93571.94;2117135;28;20465;-73
2022/10/04 02:25:17;;;;;;;5.35;4.10;;;;;;;1.25;100.00;93564.31;2115822;28;20028;-73
2022/10/04 02:26:18;;;;;;;4.50;3.78;;;;;;;1.31;100.00;93570.06;2107033;28;20107;-73
2022/10/04 02:27:19;;;;;;;6.13;4.65;;;;;;;1.34;100.00;93571.25;2109606;28;20067;-73
2022/10/04 02:28:20;;;;;;;4.10;3.70;;;;;;;1.37;100.00;93568.69;2117155;28;20132;-73
2022/10/04 02:29:21;;;;;;;5.35;4.03;;;;;;;1.40;100.00;93564.59;2116939;28;20572;-73
2022/10/04 02:30:23;;;;;;;4.10;3.70;;;;;;;1.37;100.00;93570.56;2117183;28;20453;-73
2022/10/04 02:32:59;;;;;;;5.45;4.10;;;;;;;1.39;100.00;93573.59;2115309;28;20036;-72
2022/10/04 02:34:00;;;;;;;6.45;3.85;;;;;;;1.28;100.00;93562.09;2112010;28;20891;-73
2022/10/04 02:35:02;;;;;;;3.97;3.65;;;;;;;1.28;100.00;93567.38;2117721;28;20505;-72
2022/10/04 02:36:05;;;;;;;4.00;3.60;;;;;;;1.30;100.00;93565.91;2116048;28;20040;-72
2022/10/04 02:37:08;;;;;;;5.10;4.00;;;;;;;1.34;100.00;93568.63;2115315;28;20449;-74
2022/10/04 02:38:33;;;;;;;5.85;3.90;;;;;;;1.33;100.00;93570.50;2116303;28;20752;-75
2022/10/04 02:39:39;;;;;;;9.32;4.47;;;;;;;1.38;100.00;93564.19;2114620;28;20918;-73
2022/10/04 02:40:52;;;;;;;7.40;3.97;;;;;;;1.23;100.00;93566.53;2118126;28;20040;-72
2022/10/04 02:42:08;;;;;;;4.47;3.53;;;;;;;1.40;100.00;93559.31;2112864;28;20031;-73
2022/10/04 02:43:18;;;;;;;4.43;3.70;;;;;;;1.44;100.00;93565.44;2116479;28;20027;-71
2022/10/04 02:44:21;;;;;;;5.45;3.88;;;;;;;1.40;100.00;93562.72;2116253;28;20040;-71
2022/10/04 02:45:28;;;;;;;6.15;3.92;;;;;;;1.45;100.00;93562.47;2116631;28;20024;-72
2022/10/04 02:46:37;;;;;;;4.68;3.90;;;;;;;1.41;100.00;93560.88;2108721;28;20028;-74
2022/10/04 02:47:52;;;;;;;4.15;3.45;;;;;;;1.41;100.00;93558.22;2107712;28;20474;-72
2022/10/04 02:49:00;;;;;;;4.38;3.50;;;;;;;1.34;100.00;93561.47;2112055;28;20056;-72
2022/10/04 02:50:08;;;;;;;8.85;3.78;;;;;;;1.37;100.00;93565.31;2116428;28;20115;-73
2022/10/04 02:51:17;;;;;;;4.72;3.65;;;;;;;1.32;100.00;93553.16;2117012;28;20376;-72
2022/10/04 02:52:33;;;;;;;5.85;3.85;;;;;;;1.30;100.00;93563.28;2107493;28;20033;-72
2022/10/04 02:54:04;;;;;;;5.93;3.38;;;;;;;1.32;100.00;93555.81;2108281;28;20036;-72
2022/10/04 02:55:14;;;;;;;6.63;3.78;;;;;;;1.33;100.00;93553.94;2114008;28;20038;-75
2022/10/04 02:56:17;;;;;;;7.43;3.53;;;;;;;1.31;100.00;93548.22;2112347;28;20028;-72
2022/10/04 02:57:20;;;;;;;4.60;3.78;;;;;;;1.31;100.00;93554.25;2107199;28;20032;-72
2022/10/04 02:58:24;;;;;;;9.82;4.30;;;;;;;1.34;100.00;93552.81;2109067;28;20111;-73
2022/10/04 02:59:33;;;;;;;4.95;4.25;;;;;;;1.37;100.00;93552.13;2117204;28;20105;-72
2022/10/04 03:00:46;;;;;;;7.05;4.05;;;;;;;1.36;100.00;93554.00;2114686;28;20044;-75
2022/10/04 03:01:58;;;;;;;6.28;4.32;;;;;;;1.36;100.00;93550.59;2115204;28;20681;-72
2022/10/04 03:03:08;;;;;;;4.45;4.05;;;;;;;1.37;100.00;93552.13;2113970;28;20042;-72
2022/10/04 03:04:12;;;;;;;5.13;4.18;;;;;;;1.40;100.00;93554.81;2116222;28;20454;-73
2022/10/04 03:05:14;;;;;;;7.63;4.60;;;;;;;1.40;100.00;93554.81;2118260;28;20027;-73
2022/10/04 03:06:19;;;;;;;5.13;4.63;;;;;;;1.38;100.00;93557.03;2117436;28;20046;-73
2022/10/04 03:07:23;;;;;;;5.82;4.10;;;;;;;1.36;100.00;93551.38;2116326;28;20069;-72
2022/10/04 03:08:27;;;;;;;6.70;4.75;;;;;;;1.40;100.00;93554.06;2114126;28;20442;-73
2022/10/04 03:09:28;;;;;;;5.55;4.00;;;;;;;1.30;100.00;93552.75;2117759;28;20019;-72
2022/10/04 03:10:30;;;;;;;6.65;4.47;;;;;;;1.35;100.00;93557.72;2111859;28;20046;-74
2022/10/04 03:11:37;;;;;;;7.30;4.30;;;;;;;1.34;100.00;93550.19;2116689;28;20024;-72
2022/10/04 03:12:39;;;;;;;11.40;4.60;;;;;;;1.36;100.00;93556.63;2117483;28;20031;-73
2022/10/04 03:13:45;;;;;;;6.78;3.63;;;;;;;1.40;100.00;93552.19;2111126;28;20266;-73
2022/10/04 03:14:46;;;;;;;8.23;4.10;;;;;;;1.34;100.00;93544.91;2117203;28;20119;-73
2022/10/04 03:15:49;;;;;;;13.70;4.45;;;;;;;1.26;100.00;93541.38;2116559;27;20047;-73
2022/10/04 03:16:53;;;;;;;4.38;3.45;;;;;;;1.32;100.00;93547.91;2115782;28;20039;-74
2022/10/04 03:17:54;;;;;;;9.73;3.80;;;;;;;1.26;100.00;93544.00;2114808;28;20169;-73
2022/10/04 03:18:56;;;;;;;3.58;3.28;;;;;;;1.23;100.00;93544.72;2110502;28;20047;-75
2022/10/04 03:19:59;;;;;;;4.30;3.13;;;;;;;1.34;100.00;93543.03;2106548;28;20431;-74
2022/10/04 03:21:03;;;;;;;5.93;3.10;;;;;;;1.26;100.00;93542.13;2104013;28;20039;-73
2022/10/04 03:22:10;;;;;;;7.13;3.45;;;;;;;1.28;100.00;93535.78;2113607;28;20176;-72
2022/10/04 03:23:14;;;;;;;3.08;2.88;;;;;;;1.28;100.00;93539.16;2111746;28;20513;-73
2022/10/04 03:24:19;;;;;;;3.45;2.92;;;;;;;1.32;100.00;93536.59;2109771;28;20039;-73
2022/10/04 03:25:27;;;;;;;3.25;2.95;;;;;;;1.26;100.00;93536.88;2113901;28;20038;-75
2022/10/04 03:26:28;;;;;;;3.30;3.00;;;;;;;1.24;100.00;93539.09;2114864;28;20042;-73
2022/10/04 03:27:33;;;;;;;3.08;2.78;;;;;;;1.21;100.00;93537.13;2107627;28;20085;-72
2022/10/04 03:28:36;;;;;;;2.78;2.50;;;;;;;1.28;100.00;93531.28;2108095;28;20132;-73
2022/10/04 03:29:41;;;;;;;3.13;2.83;;;;;;;1.33;100.00;93532.88;2109207;28;20106;-74
2022/10/04 03:30:43;;;;;;;5.72;2.65;;;;;;;1.29;100.00;93530.16;2110016;28;20031;-74
2022/10/04 03:31:48;;;;;;;9.23;3.05;;;;;;;1.23;100.00;93524.41;2105994;28;20032;-74
2022/10/04 03:32:49;;;;;;;5.63;2.78;;;;;;;1.16;100.00;93534.03;2092086;28;20029;-75
2022/10/04 03:33:50;;;;;;;6.13;3.30;;;;;;;1.13;100.00;93524.19;2084384;28;20664;-73
2022/10/04 03:34:56;;;;;;;6.28;3.60;;;;;;;1.15;100.00;93533.28;2099933;28;20704;-73
2022/10/04 03:35:59;;;;;;;4.38;2.90;;;;;;;1.10;100.00;93533.56;2110184;28;20055;-73
2022/10/04 03:37:02;;;;;;;2.63;2.42;;;;;;;1.14;100.00;93528.34;2107651;28;20051;-72
2022/10/04 03:38:10;;;;;;;4.13;2.60;;;;;;;1.23;100.00;93537.56;2106812;28;20028;-72
2022/10/04 03:39:26;;;;;;;4.72;2.80;;;;;;;1.25;100.00;93526.69;2108661;28;20023;-75
2022/10/04 03:40:30;;;;;;;2.80;2.58;;;;;;;1.15;100.00;93529.88;2107389;28;20023;-75
2022/10/04 03:41:33;;;;;;;4.00;2.90;;;;;;;1.16;100.00;93534.03;2105721;28;20096;-73
2022/10/04 03:42:36;;;;;;;3.03;2.83;;;;;;;1.23;100.00;93531.56;2112248;28;20076;-73
2022/10/04 03:43:43;;;;;;;9.02;2.80;;;;;;;1.23;100.00;93534.94;2111815;28;20035;-73
2022/10/04 03:44:49;;;;;;;7.82;3.05;;;;;;;1.24;100.00;93538.34;2110391;28;20043;-73
2022/10/04 03:45:51;;;;;;;6.22;2.55;;;;;;;1.21;100.00;93541.66;2106518;28;20537;-71
2022/10/04 03:46:52;;;;;;;3.40;2.78;;;;;;;1.20;100.00;93538.25;2108634;28;20109;-74
2022/10/04 03:47:57;;;;;;;8.13;2.70;;;;;;;1.14;100.00;93542.28;2109694;28;20504;-72
2022/10/04 03:48:58;;;;;;;7.70;3.20;;;;;;;1.17;100.00;93535.56;2088130;28;20071;-73
2022/10/04 03:50:18;;;;;;;5.75;3.05;;;;;;;1.17;100.00;93538.94;2088596;28;20741;-73
2022/10/04 03:51:23;;;;;;;10.07;3.05;;;;;;;1.16;100.00;93542.69;2108684;28;20027;-75
2022/10/04 03:52:28;;;;;;;7.15;2.75;;;;;;;1.15;100.00;93537.78;2106709;28;20532;-74
2022/10/04 03:53:42;;;;;;;8.43;2.78;;;;;;;1.12;100.00;93539.22;2107323;28;20036;-74
2022/10/04 03:54:43;;;;;;;6.07;3.33;;;;;;;1.13;100.00;93545.25;2109937;28;20030;-74
2022/10/04 03:55:44;;;;;;;6.20;3.25;;;;;;;1.13;100.00;93535.47;2103301;28;20033;-73
2022/10/04 03:56:46;;;;;;;7.80;3.30;;;;;;;1.13;100.00;93535.47;2097900;28;20855;-75
2022/10/04 03:57:47;;;;;;;5.72;3.25;;;;;;;1.11;100.00;93534.31;2102227;28;20028;-73
2022/10/04 03:58:50;;;;;;;10.88;3.20;;;;;;;1.13;100.00;93539.97;2107975;28;20020;-72
2022/10/04 03:59:51;;;;;;;4.55;3.10;;;;;;;1.13;100.00;93545.25;2108669;28;20020;-73
2022/10/04 04:01:10;;;;;;;4.80;3.08;;;;;;;1.09;100.00;93542.53;2105903;28;20039;-74
2022/10/04 04:02:20;;;;;;;6.25;2.80;;;;;;;1.11;100.00;93547.47;2107687;28;20462;-74
2022/10/04 04:03:22;;;;;;;6.57;2.80;;;;;;;1.03;100.00;93543.16;2111520;28;20016;-73
2022/10/04 04:04:52;;;;;;;2.92;2.72;;;;;;;1.09;100.00;93547.03;2109977;28;20042;-72
2022/10/04 04:05:59;;;;;;;3.42;2.65;;;;;;;1.09;100.00;93547.03;2107106;28;20117;-75
2022/10/04 04:07:17;;;;;;;4.63;2.80;;;;;;;1.06;100.00;93540.59;2105830;28;20032;-74
2022/10/04 04:08:31;;;;;;;6.28;3.00;;;;;;;1.06;100.00;93539.84;2108665;28;20032;-73
2022/10/04 04:09:55;;;;;;;3.25;2.95;;;;;;;1.00;100.00;93545.34;2108004;28;20031;-76
2022/10/04 04:10:58;;;;;;;9.43;2.97;;;;;;;1.02;100.00;93550.28;2097643;28;20099;-74
2022/10/04 04:12:02;;;;;;;3.05;2.75;;;;;;;0.98;100.00;93541.56;2087713;28;20029;-75
2022/10/04 04:13:28;;;;;;;5.85;2.72;;;;;;;1.10;100.00;93549.34;2087904;28;20037;-74
2022/10/04 04:14:29;;;;;;;3.17;2.80;;;;;;;1.10;100.00;93548.56;2096098;28;20020;-74
2022/10/04 04:15:32;;;;;;;4.60;2.78;;;;;;;1.02;100.00;93546.91;2091784;28;20061;-74
2022/10/04 04:16:36;;;;;;;5.05;2.85;;;;;;;0.99;100.00;93546.47;2089498;28;20399;-74
2022/10/04 04:17:42;;;;;;;3.97;2.78;;;;;;;1.03;100.00;93548.41;2093337;28;20029;-74
2022/10/04 04:18:47;;;;;;;3.92;2.95;;;;;;;1.07;100.00;93546.63;2089867;28;20040;-76
2022/10/04 04:19:48;;;;;;;3.22;2.92;;;;;;;1.06;100.00;93545.88;2092644;28;20079;-76
2022/10/04 04:20:52;;;;;;;4.55;2.92;;;;;;;1.01;100.00;93540.88;2092573;28;20025;-74
2022/10/04 04:21:54;;;;;;;3.50;3.20;;;;;;;1.03;100.00;93545.78;2093894;28;20039;-76
2022/10/04 04:23:04;;;;;;;4.35;2.97;;;;;;;0.98;100.00;93544.94;2092134;28;20204;-74
2022/10/04 04:24:17;;;;;;;3.67;3.38;;;;;;;0.94;100.00;93540.72;2092875;28;20036;-76
2022/10/04 04:25:22;;;;;;;13.45;10.02;;;;;;;1.02;100.00;93546.91;2091630;28;20040;-74
2022/10/04 04:26:38;;;;;;;12.70;9.10;;;;;;;1.02;100.00;93550.28;2091639;28;20123;-74
2022/10/04 04:27:41;;;;;;;13.27;6.90;;;;;;;1.06;100.00;93543.25;2089759;28;20029;-74
2022/10/04 04:29:06;;;;;;;7.03;6.00;;;;;;;1.10;100.00;93551.19;2092128;28;20047;-73
2022/10/04 04:30:08;;;;;;;4.60;4.20;;;;;;;1.10;100.00;93545.91;2088826;28;20083;-72
2022/10/04 04:31:25;;;;;;;11.02;4.32;;;;;;;1.08;100.00;93543.66;2087388;28;20020;-75
2022/10/04 04:32:43;;;;;;;7.70;3.40;;;;;;;1.15;100.00;93545.69;2087682;28;20040;-76
2022/10/04 04:33:50;;;;;;;5.07;4.05;;;;;;;1.11;100.00;93550.09;2087976;28;20033;-76
2022/10/04 04:34:52;;;;;;;3.90;3.50;;;;;;;1.09;100.00;93550.44;2088708;28;20028;-74
2022/10/04 04:35:55;;;;;;;3.70;3.30;;;;;;;1.11;100.00;93545.59;2089517;28;20478;-75
2022/10/04 04:36:58;;;;;;;4.53;3.90;;;;;;;1.16;100.00;93553.22;2086893;28;20100;-75
2022/10/04 04:38:02;;;;;;;5.05;3.90;;;;;;;1.16;100.00;93552.47;2088915;28;20884;-77
2022/10/04 04:39:33;;;;;;;4.32;3.45;;;;;;;1.12;100.00;93544.47;2088568;28;20494;-74
2022/10/04 04:40:36;;;;;;;16.35;3.80;;;;;;;1.02;100.00;93539.78;2088945;28;20139;-75
2022/10/04 04:41:39;;;;;;;9.88;3.58;;;;;;;1.08;100.00;93542.88;2088005;28;20029;-77
2022/10/04 04:42:41;;;;;;;7.70;3.88;;;;;;;1.13;100.00;93545.25;2088136;28;20025;-74
2022/10/04 04:43:43;;;;;;;6.47;3.60;;;;;;;1.18;100.00;93539.69;2088951;28;20052;-74
2022/10/04 04:44:51;;;;;;;5.63;3.40;;;;;;;1.15;100.00;93535.91;2088621;28;20080;-74
2022/10/04 04:45:53;;;;;;;4.80;3.92;;;;;;;1.11;100.00;93536.94;2088397;28;20036;-74
2022/10/04 04:46:55;;;;;;;5.20;3.70;;;;;;;1.19;100.00;93533.34;2089121;28;20075;-73
2022/10/04 04:47:58;;;;;;;8.27;3.58;;;;;;;1.23;100.00;93542.09;2091237;28;20455;-73
2022/10/04 04:49:03;;;;;;;7.93;3.47;;;;;;;1.23;100.00;93542.84;2086720;28;20146;-75
2022/10/04 04:50:07;;;;;;;4.03;3.30;;;;;;;1.20;100.00;93537.50;2092251;28;20037;-75
2022/10/04 04:51:23;;;;;;;9.82;3.53;;;;;;;1.14;100.00;93544.91;2083578;28;20038;-74
2022/10/04 04:52:27;;;;;;;4.63;3.42;;;;;;;1.11;100.00;93539.56;2080078;28;20041;-74
2022/10/04 04:53:29;;;;;;;4.28;3.38;;;;;;;1.15;100.00;93535.16;2093178;28;20028;-74
2022/10/04 04:54:31;;;;;;;5.80;3.40;;;;;;;1.19;100.00;93543.88;2091745;28;20136;-74
2022/10/04 04:55:39;;;;;;;7.80;3.58;;;;;;;1.16;100.00;93545.31;2091427;28;20013;-74
2022/10/04 04:56:42;;;;;;;5.20;3.10;;;;;;;1.16;100.00;93539.28;2092202;28;20111;-72
2022/10/04 04:57:44;;;;;;;4.53;3.40;;;;;;;1.19;100.00;93542.00;2089149;28;20049;-74
2022/10/04 04:58:47;;;;;;;6.15;3.40;;;;;;;1.18;100.00;93537.06;2093007;28;20435;-72
2022/10/04 04:59:57;;;;;;;7.88;3.40;;;;;;;1.18;100.00;93537.81;2093142;28;20025;-74
2022/10/04 05:01:01;;;;;;;4.35;3.20;;;;;;;1.04;100.00;93544.69;2092239;28;20040;-72
2022/10/04 05:02:02;;;;;;;8.30;3.58;;;;;;;1.06;100.00;93540.59;2092305;28;20435;-73
2022/10/04 05:03:23;;;;;;;5.75;3.40;;;;;;;1.16;100.00;93544.56;2089657;28;20106;-74
2022/10/04 05:04:25;;;;;;;7.30;3.60;;;;;;;1.15;100.00;93543.81;2091919;28;20032;-72
2022/10/04 05:05:30;;;;;;;6.75;3.15;;;;;;;1.11;100.00;93539.56;2088390;28;20042;-74
2022/10/04 05:06:33;;;;;;;6.65;3.35;;;;;;;1.16;100.00;93542.69;2091542;28;20078;-73
2022/10/04 05:07:34;;;;;;;6.47;3.20;;;;;;;1.16;100.00;93534.78;2091285;28;20021;-72
2022/10/04 05:08:36;;;;;;;10.68;3.65;;;;;;;1.14;100.00;93534.38;2088633;28;20147;-74
2022/10/04 05:09:37;;;;;;;5.50;3.47;;;;;;;1.16;100.00;93534.78;2092326;28;20036;-72
2022/10/04 05:11:08;;;;;;;14.93;3.80;;;;;;;1.13;100.00;93539.97;2092264;28;20131;-72
2022/10/04 05:12:15;;;;;;;5.53;3.00;;;;;;;1.10;100.00;93538.81;2089948;28;20025;-74
2022/10/04 05:13:18;;;;;;;13.88;3.55;;;;;;;1.10;100.00;93530.91;2092094;28;20040;-74
2022/10/04 05:14:20;;;;;;;22.75;4.05;;;;;;;1.01;100.00;93532.97;2091125;28;20063;-76
2022/10/04 05:15:21;;;;;;;6.28;3.47;;;;;;;1.04;100.00;93534.91;2096617;28;20039;-76
2022/10/04 05:16:29;;;;;;;31.70;6.10;;;;;;;0.99;100.00;93533.31;2095744;28;20031;-74
2022/10/04 05:17:33;;;;;;;50.92;5.57;;;;;;;1.00;100.00;93534.06;2093528;28;20036;-74
2022/10/04 05:18:34;;;;;;;30.52;4.45;;;;;;;1.06;100.00;93531.94;2104374;28;20107;-74
2022/10/04 05:19:38;;;;;;;36.47;4.07;;;;;;;1.06;100.00;93531.94;2098437;28;20655;-74
2022/10/04 05:20:45;;;;;;;21.83;4.82;;;;;;;1.06;100.00;93534.59;2099977;28;20034;-78